sensor_id;sensor_type;location;lat;lon;timestamp;pressure;altitude;pressure_sealevel;temperature;humidity
22964;BME280;11648;49.306;6.934;2023-07-02T00:02:26;97872.28;;;19.43;69.53
22964;BME280;11648;49.306;6.934;2023-07-02T00:04:52;97878.94;;;19.34;69.30
22964;BME280;11648;49.306;6.934;2023-07-02T00:07:19;97872.34;;;19.41;69.17
22964;BME280;11648;49.306;6.934;2023-07-02T00:09:46;97880.97;;;19.46;68.60
22964;BME280;11648;49.306;6.934;2023-07-02T00:12:13;97875.09;;;19.40;68.59
22964;BME280;11648;49.306;6.934;2023-07-02T00:14:40;97881.59;;;19.34;68.59
22964;BME280;11648;49.306;6.934;2023-07-02T00:17:07;97876.63;;;19.28;68.68
22964;BME280;11648;49.306;6.934;2023-07-02T00:19:33;97889.84;;;19.30;68.60
22964;BME280;11648;49.306;6.934;2023-07-02T00:22:00;97887.81;;;19.35;68.18
22964;BME280;11648;49.306;6.934;2023-07-02T00:24:27;97882.53;;;19.33;67.85
22964;BME280;11648;49.306;6.934;2023-07-02T00:26:54;97896.13;;;19.13;68.77
22964;BME280;11648;49.306;6.934;2023-07-02T00:29:20;97900.69;;;19.11;68.95
22964;BME280;11648;49.306;6.934;2023-07-02T00:31:47;97901.13;;;19.19;68.54
22964;BME280;11648;49.306;6.934;2023-07-02T00:34:14;97906.47;;;19.19;68.70
22964;BME280;11648;49.306;6.934;2023-07-02T00:36:41;97910.63;;;19.24;68.81
22964;BME280;11648;49.306;6.934;2023-07-02T00:39:09;97911.47;;;19.25;68.85
22964;BME280;11648;49.306;6.934;2023-07-02T00:41:38;97908.28;;;19.34;68.50
22964;BME280;11648;49.306;6.934;2023-07-02T00:44:05;97908.19;;;19.20;68.92
22964;BME280;11648;49.306;6.934;2023-07-02T00:46:32;97903.03;;;19.33;68.83
22964;BME280;11648;49.306;6.934;2023-07-02T00:49:00;97901.50;;;19.29;68.87
22964;BME280;11648;49.306;6.934;2023-07-02T00:51:29;97902.88;;;19.36;69.24
22964;BME280;11648;49.306;6.934;2023-07-02T00:53:57;97908.34;;;19.17;69.53
22964;BME280;11648;49.306;6.934;2023-07-02T00:56:26;97902.44;;;19.28;69.25
22964;BME280;11648;49.306;6.934;2023-07-02T00:58:54;97902.78;;;19.21;68.99
22964;BME280;11648;49.306;6.934;2023-07-02T01:01:27;97901.97;;;19.19;68.65
22964;BME280;11648;49.306;6.934;2023-07-02T01:04:01;97901.69;;;19.08;69.10
22964;BME280;11648;49.306;6.934;2023-07-02T01:06:33;97902.50;;;19.10;69.08
22964;BME280;11648;49.306;6.934;2023-07-02T01:09:03;97898.78;;;19.13;69.22
22964;BME280;11648;49.306;6.934;2023-07-02T01:11:33;97902.56;;;19.09;69.35
22964;BME280;11648;49.306;6.934;2023-07-02T01:14:48;97900.25;;;19.03;69.70
22964;BME280;11648;49.306;6.934;2023-07-02T01:17:13;97906.69;;;18.99;70.11
22964;BME280;11648;49.306;6.934;2023-07-02T01:19:48;97905.28;;;18.92;70.65
22964;BME280;11648;49.306;6.934;2023-07-02T01:22:22;97905.34;;;18.90;70.83
22964;BME280;11648;49.306;6.934;2023-07-02T01:24:50;97910.78;;;18.89;70.67
22964;BME280;11648;49.306;6.934;2023-07-02T01:27:18;97909.63;;;18.77;70.89
22964;BME280;11648;49.306;6.934;2023-07-02T01:29:46;97910.66;;;18.74;70.65
22964;BME280;11648;49.306;6.934;2023-07-02T01:32:14;97914.88;;;18.79;70.43
22964;BME280;11648;49.306;6.934;2023-07-02T01:34:41;97913.72;;;18.67;70.93
22964;BME280;11648;49.306;6.934;2023-07-02T01:37:10;97910.66;;;18.74;69.79
22964;BME280;11648;49.306;6.934;2023-07-02T01:39:37;97912.34;;;18.75;69.43
22964;BME280;11648;49.306;6.934;2023-07-02T01:42:11;97913.06;;;18.79;69.08
22964;BME280;11648;49.306;6.934;2023-07-02T01:44:39;97911.50;;;18.58;69.19
22964;BME280;11648;49.306;6.934;2023-07-02T01:47:06;97920.34;;;18.75;68.58
22964;BME280;11648;49.306;6.934;2023-07-02T01:49:33;97917.25;;;18.67;68.25
22964;BME280;11648;49.306;6.934;2023-07-02T01:52:00;97919.13;;;18.65;68.54
22964;BME280;11648;49.306;6.934;2023-07-02T01:54:27;97916.50;;;18.47;68.46
22964;BME280;11648;49.306;6.934;2023-07-02T01:56:55;97914.00;;;18.44;68.43
22964;BME280;11648;49.306;6.934;2023-07-02T01:59:22;97919.53;;;18.22;68.22
22964;BME280;11648;49.306;6.934;2023-07-02T02:01:49;97913.22;;;18.24;68.21
22964;BME280;11648;49.306;6.934;2023-07-02T02:04:16;97915.19;;;18.38;67.56
22964;BME280;11648;49.306;6.934;2023-07-02T02:06:43;97921.59;;;18.34;67.69
22964;BME280;11648;49.306;6.934;2023-07-02T02:09:11;97932.94;;;18.20;68.00
22964;BME280;11648;49.306;6.934;2023-07-02T02:11:40;97924.09;;;18.37;67.82
22964;BME280;11648;49.306;6.934;2023-07-02T02:14:07;97930.94;;;18.43;67.38
22964;BME280;11648;49.306;6.934;2023-07-02T02:16:34;97937.25;;;18.23;67.89
22964;BME280;11648;49.306;6.934;2023-07-02T02:19:02;97935.84;;;18.16;68.02
22964;BME280;11648;49.306;6.934;2023-07-02T02:21:30;97934.91;;;18.17;68.20
22964;BME280;11648;49.306;6.934;2023-07-02T02:23:57;97939.53;;;18.31;67.55
22964;BME280;11648;49.306;6.934;2023-07-02T02:26:26;97937.66;;;18.33;67.36
22964;BME280;11648;49.306;6.934;2023-07-02T02:28:53;97940.25;;;18.17;67.78
22964;BME280;11648;49.306;6.934;2023-07-02T02:31:20;97942.91;;;18.17;67.68
22964;BME280;11648;49.306;6.934;2023-07-02T02:33:47;97930.56;;;18.14;68.12
22964;BME280;11648;49.306;6.934;2023-07-02T02:36:14;97925.50;;;18.27;67.84
22964;BME280;11648;49.306;6.934;2023-07-02T02:38:42;97926.44;;;18.26;67.78
22964;BME280;11648;49.306;6.934;2023-07-02T02:41:09;97926.59;;;18.23;67.74
22964;BME280;11648;49.306;6.934;2023-07-02T02:43:41;97921.59;;;18.17;68.02
22964;BME280;11648;49.306;6.934;2023-07-02T02:46:11;97928.16;;;18.10;68.27
22964;BME280;11648;49.306;6.934;2023-07-02T02:48:38;97922.84;;;18.10;68.18
22964;BME280;11648;49.306;6.934;2023-07-02T02:51:05;97918.13;;;18.15;68.38
22964;BME280;11648;49.306;6.934;2023-07-02T02:53:31;97923.44;;;18.15;68.21
22964;BME280;11648;49.306;6.934;2023-07-02T02:55:58;97929.59;;;18.17;68.11
22964;BME280;11648;49.306;6.934;2023-07-02T02:58:25;97925.94;;;18.18;67.75
22964;BME280;11648;49.306;6.934;2023-07-02T03:00:51;97926.75;;;18.20;67.74
22964;BME280;11648;49.306;6.934;2023-07-02T03:03:18;97927.19;;;18.11;68.02
22964;BME280;11648;49.306;6.934;2023-07-02T03:05:47;97935.84;;;18.16;67.81
22964;BME280;11648;49.306;6.934;2023-07-02T03:08:14;97934.38;;;18.27;67.35
22964;BME280;11648;49.306;6.934;2023-07-02T03:10:41;97930.34;;;18.19;67.36
22964;BME280;11648;49.306;6.934;2023-07-02T03:13:08;97928.94;;;18.29;67.23
22964;BME280;11648;49.306;6.934;2023-07-02T03:15:35;97933.34;;;18.30;67.22
22964;BME280;11648;49.306;6.934;2023-07-02T03:18:02;97930.69;;;18.30;67.29
22964;BME280;11648;49.306;6.934;2023-07-02T03:20:28;97931.78;;;18.43;66.59
22964;BME280;11648;49.306;6.934;2023-07-02T03:22:55;97926.44;;;18.43;66.69
22964;BME280;11648;49.306;6.934;2023-07-02T03:25:22;97936.16;;;18.44;66.70
22964;BME280;11648;49.306;6.934;2023-07-02T03:27:49;97937.59;;;18.34;66.99
22964;BME280;11648;49.306;6.934;2023-07-02T03:30:15;97935.69;;;18.36;67.01
22964;BME280;11648;49.306;6.934;2023-07-02T03:32:42;97937.97;;;18.26;67.37
22964;BME280;11648;49.306;6.934;2023-07-02T03:35:09;97945.66;;;18.33;67.23
22964;BME280;11648;49.306;6.934;2023-07-02T03:37:36;97939.00;;;18.41;66.97
22964;BME280;11648;49.306;6.934;2023-07-02T03:40:03;97943.69;;;18.36;67.24
22964;BME280;11648;49.306;6.934;2023-07-02T03:42:32;97947.22;;;18.37;67.11
22964;BME280;11648;49.306;6.934;2023-07-02T03:44:59;97954.59;;;18.32;67.51
22964;BME280;11648;49.306;6.934;2023-07-02T03:47:26;97956.09;;;18.37;67.14
22964;BME280;11648;49.306;6.934;2023-07-02T03:49:52;97952.97;;;18.46;66.92
22964;BME280;11648;49.306;6.934;2023-07-02T03:52:20;97960.25;;;18.43;67.16
22964;BME280;11648;49.306;6.934;2023-07-02T03:54:47;97954.06;;;18.42;67.38
22964;BME280;11648;49.306;6.934;2023-07-02T03:57:14;97960.16;;;18.44;67.26
22964;BME280;11648;49.306;6.934;2023-07-02T03:59:40;97958.03;;;18.34;67.84
22964;BME280;11648;49.306;6.934;2023-07-02T04:02:07;97972.06;;;18.37;67.80
22964;BME280;11648;49.306;6.934;2023-07-02T04:04:34;97977.88;;;18.45;67.57
22964;BME280;11648;49.306;6.934;2023-07-02T04:07:01;97972.06;;;18.20;68.26
22964;BME280;11648;49.306;6.934;2023-07-02T04:09:27;97972.28;;;18.33;68.35
22964;BME280;11648;49.306;6.934;2023-07-02T04:11:54;97981.13;;;18.52;67.81
22964;BME280;11648;49.306;6.934;2023-07-02T04:14:21;97978.28;;;18.38;68.12
22964;BME280;11648;49.306;6.934;2023-07-02T04:16:48;97986.84;;;18.25;68.51
22964;BME280;11648;49.306;6.934;2023-07-02T04:19:14;97994.47;;;18.33;68.43
22964;BME280;11648;49.306;6.934;2023-07-02T04:21:41;97994.94;;;18.24;68.78
22964;BME280;11648;49.306;6.934;2023-07-02T04:24:08;97996.31;;;18.50;68.29
22964;BME280;11648;49.306;6.934;2023-07-02T04:26:35;97999.25;;;18.26;68.59
22964;BME280;11648;49.306;6.934;2023-07-02T04:29:23;98001.78;;;18.47;68.31
22964;BME280;11648;49.306;6.934;2023-07-02T04:31:49;98000.03;;;18.64;67.97
22964;BME280;11648;49.306;6.934;2023-07-02T04:34:16;98000.78;;;18.49;68.01
22964;BME280;11648;49.306;6.934;2023-07-02T04:36:43;98002.84;;;18.25;68.93
22964;BME280;11648;49.306;6.934;2023-07-02T04:39:10;98005.63;;;18.41;68.34
22964;BME280;11648;49.306;6.934;2023-07-02T04:41:37;98005.25;;;18.49;68.22
22964;BME280;11648;49.306;6.934;2023-07-02T04:44:06;98005.34;;;18.64;67.76
22964;BME280;11648;49.306;6.934;2023-07-02T04:46:34;98005.28;;;19.00;66.59
22964;BME280;11648;49.306;6.934;2023-07-02T04:49:01;98013.84;;;18.72;67.15
22964;BME280;11648;49.306;6.934;2023-07-02T04:51:28;98012.28;;;19.03;66.31
22964;BME280;11648;49.306;6.934;2023-07-02T04:53:54;98016.56;;;19.22;65.86
22964;BME280;11648;49.306;6.934;2023-07-02T04:56:21;98018.38;;;19.22;65.71
22964;BME280;11648;49.306;6.934;2023-07-02T04:58:48;98022.28;;;19.15;65.65
22964;BME280;11648;49.306;6.934;2023-07-02T05:01:15;98026.31;;;19.23;65.51
22964;BME280;11648;49.306;6.934;2023-07-02T05:03:41;98027.38;;;19.37;64.82
22964;BME280;11648;49.306;6.934;2023-07-02T05:06:08;98030.88;;;19.21;65.10
22964;BME280;11648;49.306;6.934;2023-07-02T05:08:35;98027.91;;;19.10;65.27
22964;BME280;11648;49.306;6.934;2023-07-02T05:11:03;98036.06;;;19.40;64.46
22964;BME280;11648;49.306;6.934;2023-07-02T05:13:30;98024.56;;;19.40;63.99
22964;BME280;11648;49.306;6.934;2023-07-02T05:15:57;98038.34;;;19.65;63.81
22964;BME280;11648;49.306;6.934;2023-07-02T05:18:23;98041.44;;;19.57;63.48
22964;BME280;11648;49.306;6.934;2023-07-02T05:20:50;98046.00;;;19.38;64.00
22964;BME280;11648;49.306;6.934;2023-07-02T05:23:17;98044.41;;;19.51;64.20
22964;BME280;11648;49.306;6.934;2023-07-02T05:25:44;98048.84;;;19.18;64.67
22964;BME280;11648;49.306;6.934;2023-07-02T05:28:12;98057.47;;;19.57;63.73
22964;BME280;11648;49.306;6.934;2023-07-02T05:30:39;98057.16;;;19.46;63.79
22964;BME280;11648;49.306;6.934;2023-07-02T05:33:05;98050.69;;;19.33;64.00
22964;BME280;11648;49.306;6.934;2023-07-02T05:35:32;98046.00;;;19.38;64.29
22964;BME280;11648;49.306;6.934;2023-07-02T05:37:59;98059.16;;;19.76;63.19
22964;BME280;11648;49.306;6.934;2023-07-02T05:40:26;98055.72;;;19.89;62.59
22964;BME280;11648;49.306;6.934;2023-07-02T05:42:52;98052.25;;;19.71;63.25
22964;BME280;11648;49.306;6.934;2023-07-02T05:45:19;98044.88;;;19.59;63.67
22964;BME280;11648;49.306;6.934;2023-07-02T05:47:46;98047.59;;;19.75;63.05
22964;BME280;11648;49.306;6.934;2023-07-02T05:50:13;98048.28;;;19.94;62.58
22964;BME280;11648;49.306;6.934;2023-07-02T05:52:39;98054.59;;;19.93;62.64
22964;BME280;11648;49.306;6.934;2023-07-02T05:55:09;98051.44;;;20.18;61.55
22964;BME280;11648;49.306;6.934;2023-07-02T05:57:37;98055.16;;;20.31;61.03
22964;BME280;11648;49.306;6.934;2023-07-02T06:00:05;98054.81;;;20.21;61.75
22964;BME280;11648;49.306;6.934;2023-07-02T06:02:37;98053.88;;;20.38;61.29
22964;BME280;11648;49.306;6.934;2023-07-02T06:05:05;98055.75;;;20.52;60.86
22964;BME280;11648;49.306;6.934;2023-07-02T06:07:32;98062.56;;;20.57;60.36
22964;BME280;11648;49.306;6.934;2023-07-02T06:09:58;98056.44;;;20.71;60.31
22964;BME280;11648;49.306;6.934;2023-07-02T06:12:25;98058.09;;;20.88;59.40
22964;BME280;11648;49.306;6.934;2023-07-02T06:14:52;98063.44;;;21.19;58.88
22964;BME280;11648;49.306;6.934;2023-07-02T06:17:19;98066.19;;;21.17;58.60
22964;BME280;11648;49.306;6.934;2023-07-02T06:19:47;98063.31;;;21.21;58.45
22964;BME280;11648;49.306;6.934;2023-07-02T06:22:14;98062.78;;;21.30;57.86
22964;BME280;11648;49.306;6.934;2023-07-02T06:24:40;98059.06;;;21.46;57.78
22964;BME280;11648;49.306;6.934;2023-07-02T06:27:07;98070.38;;;21.65;57.79
22964;BME280;11648;49.306;6.934;2023-07-02T06:29:34;98060.13;;;21.86;56.85
22964;BME280;11648;49.306;6.934;2023-07-02T06:32:01;98067.16;;;22.03;55.87
22964;BME280;11648;49.306;6.934;2023-07-02T06:34:28;98069.28;;;22.39;55.95
22964;BME280;11648;49.306;6.934;2023-07-02T06:36:54;98064.06;;;21.95;56.01
22964;BME280;11648;49.306;6.934;2023-07-02T06:39:21;98066.88;;;22.07;55.49
22964;BME280;11648;49.306;6.934;2023-07-02T06:41:48;98074.41;;;21.73;56.20
22964;BME280;11648;49.306;6.934;2023-07-02T06:44:16;98071.94;;;21.84;56.05
22964;BME280;11648;49.306;6.934;2023-07-02T06:46:45;98066.25;;;22.16;55.29
22964;BME280;11648;49.306;6.934;2023-07-02T06:49:12;98059.09;;;22.58;54.24
22964;BME280;11648;49.306;6.934;2023-07-02T06:51:39;98062.38;;;22.90;53.16
22964;BME280;11648;49.306;6.934;2023-07-02T06:54:06;98064.88;;;22.52;53.12
22964;BME280;11648;49.306;6.934;2023-07-02T06:56:33;98067.38;;;22.41;53.14
22964;BME280;11648;49.306;6.934;2023-07-02T06:59:01;98066.06;;;22.34;53.62
22964;BME280;11648;49.306;6.934;2023-07-02T07:01:28;98073.06;;;22.22;54.06
22964;BME280;11648;49.306;6.934;2023-07-02T07:03:54;98061.50;;;22.62;52.78
22964;BME280;11648;49.306;6.934;2023-07-02T07:06:21;98062.84;;;23.09;51.45
22964;BME280;11648;49.306;6.934;2023-07-02T07:08:48;98062.22;;;22.79;51.99
22964;BME280;11648;49.306;6.934;2023-07-02T07:11:15;98065.75;;;22.79;52.13
22964;BME280;11648;49.306;6.934;2023-07-02T07:13:41;98067.66;;;23.04;52.02
22964;BME280;11648;49.306;6.934;2023-07-02T07:16:10;98067.16;;;23.24;51.46
22964;BME280;11648;49.306;6.934;2023-07-02T07:18:37;98063.81;;;23.21;51.13
22964;BME280;11648;49.306;6.934;2023-07-02T07:21:04;98067.28;;;23.35;50.63
22964;BME280;11648;49.306;6.934;2023-07-02T07:23:31;98063.16;;;22.78;51.17
22964;BME280;11648;49.306;6.934;2023-07-02T07:25:57;98068.28;;;23.34;50.17
22964;BME280;11648;49.306;6.934;2023-07-02T07:28:24;98065.47;;;23.23;49.52
22964;BME280;11648;49.306;6.934;2023-07-02T07:30:51;98070.63;;;23.39;50.21
22964;BME280;11648;49.306;6.934;2023-07-02T07:33:18;98069.88;;;23.37;49.35
22964;BME280;11648;49.306;6.934;2023-07-02T07:35:44;98067.91;;;23.66;49.08
22964;BME280;11648;49.306;6.934;2023-07-02T07:38:13;98068.75;;;23.91;48.48
22964;BME280;11648;49.306;6.934;2023-07-02T07:40:42;98074.69;;;23.84;49.29
22964;BME280;11648;49.306;6.934;2023-07-02T07:43:09;98071.22;;;23.94;48.53
22964;BME280;11648;49.306;6.934;2023-07-02T07:45:36;98074.53;;;23.85;48.30
22964;BME280;11648;49.306;6.934;2023-07-02T07:48:06;98078.16;;;22.68;51.41
22964;BME280;11648;49.306;6.934;2023-07-02T07:50:33;98106.03;;;22.65;51.88
22964;BME280;11648;49.306;6.934;2023-07-02T07:53:00;98091.59;;;21.98;52.67
22964;BME280;11648;49.306;6.934;2023-07-02T07:55:27;98085.00;;;22.45;51.65
22964;BME280;11648;49.306;6.934;2023-07-02T07:57:54;98074.19;;;22.87;50.05
22964;BME280;11648;49.306;6.934;2023-07-02T08:00:20;98071.34;;;23.55;48.08
22964;BME280;11648;49.306;6.934;2023-07-02T08:02:47;98074.78;;;23.44;47.36
22964;BME280;11648;49.306;6.934;2023-07-02T08:05:14;98076.28;;;23.74;47.00
22964;BME280;11648;49.306;6.934;2023-07-02T08:07:41;98073.16;;;23.54;47.79
22964;BME280;11648;49.306;6.934;2023-07-02T08:10:09;98081.75;;;23.47;48.30
22964;BME280;11648;49.306;6.934;2023-07-02T08:12:36;98096.59;;;22.86;49.47
22964;BME280;11648;49.306;6.934;2023-07-02T08:15:03;98099.06;;;22.62;50.32
22964;BME280;11648;49.306;6.934;2023-07-02T08:17:30;98090.72;;;22.67;50.57
22964;BME280;11648;49.306;6.934;2023-07-02T08:19:57;98094.88;;;22.85;50.17
22964;BME280;11648;49.306;6.934;2023-07-02T08:22:24;98085.53;;;23.70;48.53
22964;BME280;11648;49.306;6.934;2023-07-02T08:24:51;98082.84;;;24.20;46.03
22964;BME280;11648;49.306;6.934;2023-07-02T08:27:18;98086.03;;;23.49;46.47
22964;BME280;11648;49.306;6.934;2023-07-02T08:29:48;98100.47;;;23.48;47.46
22964;BME280;11648;49.306;6.934;2023-07-02T08:32:15;98096.16;;;23.58;46.93
22964;BME280;11648;49.306;6.934;2023-07-02T08:34:42;98094.66;;;24.05;46.25
22964;BME280;11648;49.306;6.934;2023-07-02T08:37:09;98096.88;;;24.49;44.64
22964;BME280;11648;49.306;6.934;2023-07-02T08:39:37;98096.03;;;23.08;44.42
22964;BME280;11648;49.306;6.934;2023-07-02T08:42:07;98100.91;;;23.28;45.48
22964;BME280;11648;49.306;6.934;2023-07-02T08:44:34;98093.25;;;24.37;43.45
22964;BME280;11648;49.306;6.934;2023-07-02T08:47:02;98073.91;;;25.16;41.36
22964;BME280;11648;49.306;6.934;2023-07-02T08:49:29;98074.31;;;25.34;40.88
22964;BME280;11648;49.306;6.934;2023-07-02T08:51:57;98064.47;;;24.87;40.84
22964;BME280;11648;49.306;6.934;2023-07-02T08:54:23;98077.75;;;25.25;41.50
22964;BME280;11648;49.306;6.934;2023-07-02T08:56:50;98074.41;;;25.21;41.19
22964;BME280;11648;49.306;6.934;2023-07-02T08:59:17;98068.97;;;26.02;39.50
22964;BME280;11648;49.306;6.934;2023-07-02T09:01:48;98085.41;;;25.18;41.54
22964;BME280;11648;49.306;6.934;2023-07-02T09:06:47;98097.78;;;24.73;41.92
22964;BME280;11648;49.306;6.934;2023-07-02T09:09:14;98102.13;;;24.99;42.77
22964;BME280;11648;49.306;6.934;2023-07-02T09:11:50;98107.00;;;24.45;43.35
22964;BME280;11648;49.306;6.934;2023-07-02T09:14:33;98086.28;;;25.19;40.76
22964;BME280;11648;49.306;6.934;2023-07-02T09:17:07;98072.66;;;26.45;38.42
22964;BME280;11648;49.306;6.934;2023-07-02T09:19:36;98064.19;;;27.36;37.04
22964;BME280;11648;49.306;6.934;2023-07-02T09:22:03;98057.44;;;28.53;35.26
22964;BME280;11648;49.306;6.934;2023-07-02T09:24:31;98041.72;;;29.06;33.76
22964;BME280;11648;49.306;6.934;2023-07-02T09:27:00;98068.06;;;28.05;35.27
22964;BME280;11648;49.306;6.934;2023-07-02T09:29:33;98061.69;;;28.36;34.98
22964;BME280;11648;49.306;6.934;2023-07-02T09:32:02;98068.03;;;27.75;36.00
22964;BME280;11648;49.306;6.934;2023-07-02T09:34:38;98082.06;;;27.16;36.82
22964;BME280;11648;49.306;6.934;2023-07-02T09:37:06;98070.19;;;27.81;35.48
22964;BME280;11648;49.306;6.934;2023-07-02T09:39:34;98064.72;;;27.30;35.66
22964;BME280;11648;49.306;6.934;2023-07-02T09:42:04;98076.22;;;27.64;35.61
22964;BME280;11648;49.306;6.934;2023-07-02T09:44:33;98058.16;;;28.95;34.38
22964;BME280;11648;49.306;6.934;2023-07-02T09:49:32;98041.44;;;30.50;31.97
22964;BME280;11648;49.306;6.934;2023-07-02T09:52:05;98039.34;;;30.71;31.58
22964;BME280;11648;49.306;6.934;2023-07-02T09:54:33;98037.88;;;29.66;32.38
22964;BME280;11648;49.306;6.934;2023-07-02T09:57:00;98052.31;;;28.50;33.95
22964;BME280;11648;49.306;6.934;2023-07-02T09:59:27;98069.81;;;27.65;35.14
22964;BME280;11648;49.306;6.934;2023-07-02T10:01:55;98071.88;;;27.72;35.05
22964;BME280;11648;49.306;6.934;2023-07-02T10:04:22;98070.59;;;27.03;35.56
22964;BME280;11648;49.306;6.934;2023-07-02T10:06:55;98065.97;;;27.88;33.81
22964;BME280;11648;49.306;6.934;2023-07-02T10:09:35;98044.41;;;29.64;32.20
22964;BME280;11648;49.306;6.934;2023-07-02T10:12:15;98037.22;;;30.38;30.13
22964;BME280;11648;49.306;6.934;2023-07-02T10:14:43;98036.63;;;28.54;31.79
22964;BME280;11648;49.306;6.934;2023-07-02T10:17:10;98052.31;;;28.10;32.62
22964;BME280;11648;49.306;6.934;2023-07-02T10:19:53;98056.53;;;28.33;32.04
22964;BME280;11648;49.306;6.934;2023-07-02T10:22:20;98051.88;;;28.45;32.19
22964;BME280;11648;49.306;6.934;2023-07-02T10:24:52;98053.53;;;28.27;32.89
22964;BME280;11648;49.306;6.934;2023-07-02T10:27:20;98066.00;;;27.15;34.22
22964;BME280;11648;49.306;6.934;2023-07-02T10:29:50;98069.78;;;26.69;35.57
22964;BME280;11648;49.306;6.934;2023-07-02T10:32:27;98062.53;;;26.70;34.51
22964;BME280;11648;49.306;6.934;2023-07-02T10:34:58;98063.69;;;27.31;34.29
22964;BME280;11648;49.306;6.934;2023-07-02T10:37:26;98057.91;;;26.83;33.72
22964;BME280;11648;49.306;6.934;2023-07-02T10:39:54;98060.25;;;26.54;35.04
22964;BME280;11648;49.306;6.934;2023-07-02T10:42:21;98066.28;;;27.32;33.74
22964;BME280;11648;49.306;6.934;2023-07-02T10:44:50;98060.81;;;27.55;33.39
22964;BME280;11648;49.306;6.934;2023-07-02T10:47:18;98045.16;;;29.08;32.03
22964;BME280;11648;49.306;6.934;2023-07-02T10:49:45;98029.53;;;31.06;29.62
22964;BME280;11648;49.306;6.934;2023-07-02T10:52:12;98021.44;;;32.26;27.30
22964;BME280;11648;49.306;6.934;2023-07-02T10:54:44;97997.91;;;33.50;25.64
22964;BME280;11648;49.306;6.934;2023-07-02T10:57:14;97979.94;;;34.43;23.55
22964;BME280;11648;49.306;6.934;2023-07-02T10:59:47;97982.66;;;35.12;22.91
22964;BME280;11648;49.306;6.934;2023-07-02T11:02:15;97970.41;;;35.98;21.50
22964;BME280;11648;49.306;6.934;2023-07-02T11:04:42;97980.47;;;33.59;23.76
22964;BME280;11648;49.306;6.934;2023-07-02T11:07:10;97988.47;;;32.38;25.05
22964;BME280;11648;49.306;6.934;2023-07-02T11:09:38;98011.53;;;31.48;25.10
22964;BME280;11648;49.306;6.934;2023-07-02T11:12:05;98002.41;;;31.75;24.87
22964;BME280;11648;49.306;6.934;2023-07-02T11:14:36;98012.81;;;31.54;27.79
22964;BME280;11648;49.306;6.934;2023-07-02T11:17:04;98018.25;;;31.18;28.48
22964;BME280;11648;49.306;6.934;2023-07-02T11:19:35;98028.91;;;31.29;28.85
22964;BME280;11648;49.306;6.934;2023-07-02T11:22:02;98032.53;;;30.85;28.83
22964;BME280;11648;49.306;6.934;2023-07-02T11:24:36;98043.56;;;29.73;30.69
22964;BME280;11648;49.306;6.934;2023-07-02T11:27:04;98059.38;;;28.72;31.90
22964;BME280;11648;49.306;6.934;2023-07-02T11:29:35;98054.66;;;28.74;32.25
22964;BME280;11648;49.306;6.934;2023-07-02T11:32:09;98058.34;;;28.23;32.50
22964;BME280;11648;49.306;6.934;2023-07-02T11:34:39;98058.84;;;28.87;31.98
22964;BME280;11648;49.306;6.934;2023-07-02T11:37:06;98061.75;;;28.65;32.58
22964;BME280;11648;49.306;6.934;2023-07-02T11:39:33;98052.28;;;29.67;30.49
22964;BME280;11648;49.306;6.934;2023-07-02T11:42:00;98029.25;;;31.70;27.81
22964;BME280;11648;49.306;6.934;2023-07-02T11:44:26;98009.31;;;33.94;25.87
22964;BME280;11648;49.306;6.934;2023-07-02T11:46:53;98006.00;;;34.06;24.83
22964;BME280;11648;49.306;6.934;2023-07-02T11:49:20;98003.19;;;33.19;26.08
22964;BME280;11648;49.306;6.934;2023-07-02T11:51:47;98016.66;;;31.95;27.18
22964;BME280;11648;49.306;6.934;2023-07-02T11:54:16;98027.25;;;29.82;29.38
22964;BME280;11648;49.306;6.934;2023-07-02T11:56:44;98040.22;;;30.45;28.93
22964;BME280;11648;49.306;6.934;2023-07-02T11:59:11;98023.88;;;32.38;26.92
22964;BME280;11648;49.306;6.934;2023-07-02T12:01:38;98006.09;;;33.34;25.42
22964;BME280;11648;49.306;6.934;2023-07-02T12:04:05;98004.22;;;33.26;25.06
22964;BME280;11648;49.306;6.934;2023-07-02T12:06:34;97999.38;;;31.78;26.31
22964;BME280;11648;49.306;6.934;2023-07-02T12:09:01;98006.13;;;30.95;27.46
22964;BME280;11648;49.306;6.934;2023-07-02T12:11:27;98007.38;;;29.82;27.98
22964;BME280;11648;49.306;6.934;2023-07-02T12:13:54;98030.31;;;29.51;28.98
22964;BME280;11648;49.306;6.934;2023-07-02T12:16:21;98022.97;;;30.81;28.38
22964;BME280;11648;49.306;6.934;2023-07-02T12:18:48;98017.69;;;30.79;27.70
22964;BME280;11648;49.306;6.934;2023-07-02T12:21:14;98023.59;;;30.48;28.73
22964;BME280;11648;49.306;6.934;2023-07-02T12:23:45;98034.09;;;29.96;29.06
22964;BME280;11648;49.306;6.934;2023-07-02T12:26:11;98021.28;;;29.88;29.64
22964;BME280;11648;49.306;6.934;2023-07-02T12:28:38;98024.38;;;30.30;29.90
22964;BME280;11648;49.306;6.934;2023-07-02T12:31:05;98020.91;;;30.65;28.61
22964;BME280;11648;49.306;6.934;2023-07-02T12:33:32;98011.19;;;31.25;28.02
22964;BME280;11648;49.306;6.934;2023-07-02T12:35:58;98025.88;;;30.15;28.88
22964;BME280;11648;49.306;6.934;2023-07-02T12:38:26;98018.03;;;30.39;29.13
22964;BME280;11648;49.306;6.934;2023-07-02T12:40:52;98018.53;;;30.25;29.05
22964;BME280;11648;49.306;6.934;2023-07-02T12:43:19;98030.38;;;29.97;29.86
22964;BME280;11648;49.306;6.934;2023-07-02T12:45:46;98036.41;;;29.81;30.52
22964;BME280;11648;49.306;6.934;2023-07-02T12:48:13;98032.53;;;29.84;31.26
22964;BME280;11648;49.306;6.934;2023-07-02T12:50:40;98041.91;;;29.53;31.13
22964;BME280;11648;49.306;6.934;2023-07-02T12:53:07;98041.34;;;29.49;31.28
22964;BME280;11648;49.306;6.934;2023-07-02T12:55:34;98040.47;;;29.20;31.12
22964;BME280;11648;49.306;6.934;2023-07-02T12:58:01;98035.59;;;28.94;31.60
22964;BME280;11648;49.306;6.934;2023-07-02T13:00:27;98032.06;;;29.13;31.23
22964;BME280;11648;49.306;6.934;2023-07-02T13:02:54;98034.47;;;29.45;30.97
22964;BME280;11648;49.306;6.934;2023-07-02T13:05:31;98040.19;;;29.42;30.60
22964;BME280;11648;49.306;6.934;2023-07-02T13:07:58;98047.88;;;29.56;30.48
22964;BME280;11648;49.306;6.934;2023-07-02T13:10:25;98042.31;;;29.38;30.16